createdAt,value
2022-07-27T00:00:47.478Z,0.50
2022-07-27T00:03:13.995Z,0.57
2022-07-27T00:05:40.656Z,0.50
2022-07-27T00:08:07.292Z,0.75
2022-07-27T00:10:35.128Z,0.80
2022-07-27T00:13:02.372Z,1.00
2022-07-27T00:15:29.107Z,1.00
2022-07-27T00:17:56.940Z,0.90
2022-07-27T00:20:27.126Z,0.93
2022-07-27T00:22:55.339Z,1.20
2022-07-27T00:25:22.977Z,0.90
2022-07-27T00:27:49.717Z,0.90
2022-07-27T00:30:16.914Z,0.93
2022-07-27T00:32:43.517Z,1.02
2022-07-27T00:35:10.642Z,1.10
2022-07-27T00:37:37.435Z,1.20
2022-07-27T00:40:04.926Z,1.30
2022-07-27T00:42:31.532Z,1.63
2022-07-27T00:44:58.382Z,1.70
2022-07-27T00:47:25.420Z,1.65
2022-07-27T00:49:51.983Z,1.70
2022-07-27T00:52:19.708Z,1.85
2022-07-27T00:54:47.943Z,1.70
2022-07-27T00:57:15.607Z,1.83
2022-07-27T00:59:42.366Z,1.80
2022-07-27T01:02:11.923Z,1.83
2022-07-27T01:04:39.556Z,1.80
2022-07-27T01:07:07.228Z,1.48
2022-07-27T01:09:53.168Z,1.77
2022-07-27T01:12:21.428Z,2.30
2022-07-27T01:14:49.733Z,1.98
2022-07-27T01:17:17.328Z,1.83
2022-07-27T01:19:44.461Z,2.00
2022-07-27T01:22:11.307Z,2.25
2022-07-27T01:24:38.233Z,1.98
2022-07-27T01:27:06.051Z,2.70
2022-07-27T01:29:33.513Z,2.80
2022-07-27T01:32:01.249Z,2.50
2022-07-27T01:34:27.878Z,2.22
2022-07-27T01:36:54.568Z,2.55
2022-07-27T01:39:21.303Z,2.10
2022-07-27T01:41:47.867Z,2.30
2022-07-27T01:44:14.507Z,2.10
2022-07-27T01:46:41.291Z,2.20
2022-07-27T01:49:08.390Z,2.00
2022-07-27T01:51:35.211Z,2.20
2022-07-27T01:54:01.744Z,1.80
2022-07-27T01:56:53.847Z,1.63
2022-07-27T01:59:20.404Z,1.83
2022-07-27T02:01:47.409Z,2.20
2022-07-27T02:04:14.144Z,2.28
2022-07-27T02:06:40.631Z,2.20
2022-07-27T02:09:07.242Z,2.08
2022-07-27T02:11:52.625Z,2.20
2022-07-27T02:14:21.356Z,2.03
2022-07-27T02:16:48.460Z,1.80
2022-07-27T02:19:17.319Z,1.42
2022-07-27T02:21:45.233Z,1.50
2022-07-27T02:24:11.762Z,1.70
2022-07-27T02:26:38.329Z,1.50
2022-07-27T02:29:05.338Z,1.30
2022-07-27T02:31:32.912Z,1.48
2022-07-27T02:33:59.828Z,1.00
2022-07-27T02:36:29.239Z,1.20
2022-07-27T02:38:56.279Z,1.38
2022-07-27T02:41:23.156Z,1.10
2022-07-27T02:43:49.682Z,1.15
2022-07-27T02:46:16.336Z,1.02
2022-07-27T02:48:42.863Z,0.77
2022-07-27T02:51:09.430Z,1.00
2022-07-27T02:53:36.083Z,0.80
2022-07-27T02:56:02.554Z,0.70
2022-07-27T02:58:29.707Z,0.88
2022-07-27T03:00:58.542Z,0.70
2022-07-27T03:03:36.814Z,0.57
2022-07-27T03:06:08.362Z,0.73
2022-07-27T03:08:36.411Z,0.47
2022-07-27T03:11:02.964Z,0.70
2022-07-27T03:13:29.814Z,0.80
2022-07-27T03:15:57.461Z,0.60
2022-07-27T03:18:24.934Z,0.70
2022-07-27T03:20:51.471Z,0.70
2022-07-27T03:23:18.963Z,0.80
2022-07-27T03:25:45.430Z,0.57
2022-07-27T03:28:11.998Z,0.63
2022-07-27T03:30:38.550Z,0.45
2022-07-27T03:33:05.243Z,0.50
2022-07-27T03:35:31.833Z,0.65
2022-07-27T03:37:58.519Z,0.60
2022-07-27T03:40:25.156Z,0.80
2022-07-27T03:42:51.673Z,0.50
2022-07-27T03:45:18.180Z,0.95
2022-07-27T03:47:44.790Z,0.52
2022-07-27T03:50:12.049Z,0.70
2022-07-27T03:52:38.828Z,0.68
2022-07-27T03:55:06.152Z,0.80
2022-07-27T03:57:32.789Z,0.55
2022-07-27T03:59:59.351Z,0.90
2022-07-27T04:02:26.014Z,0.65
2022-07-27T04:04:52.764Z,0.60
2022-07-27T04:07:19.319Z,0.88
2022-07-27T04:09:47.212Z,0.43
2022-07-27T04:12:15.103Z,0.50
2022-07-27T04:14:44.096Z,0.60
2022-07-27T04:17:10.647Z,0.55
2022-07-27T04:19:37.339Z,0.70
2022-07-27T04:22:04.176Z,0.60
2022-07-27T04:24:30.643Z,0.55
2022-07-27T04:26:57.170Z,0.73
2022-07-27T04:29:24.218Z,0.60
2022-07-27T04:31:50.969Z,0.70
2022-07-27T04:34:19.069Z,0.68
2022-07-27T04:36:45.746Z,0.40
2022-07-27T04:39:12.872Z,0.55
2022-07-27T04:41:39.615Z,0.80
2022-07-27T04:44:06.140Z,0.63
2022-07-27T04:46:32.683Z,0.70
2022-07-27T04:48:59.373Z,0.70
2022-07-27T04:51:27.377Z,0.75
2022-07-27T04:53:58.715Z,0.57
2022-07-27T04:56:27.203Z,0.60
2022-07-27T04:58:55.375Z,0.50
2022-07-27T05:01:23.304Z,0.60
2022-07-27T05:03:50.082Z,0.60
2022-07-27T05:06:17.392Z,0.90
2022-07-27T05:08:43.981Z,0.75
2022-07-27T05:11:10.491Z,0.50
2022-07-27T05:13:41.003Z,0.68
2022-07-27T05:16:09.378Z,0.50
2022-07-27T05:18:36.769Z,0.80
2022-07-27T05:21:03.763Z,0.82
2022-07-27T05:23:30.218Z,0.85
2022-07-27T05:25:56.864Z,0.80
2022-07-27T05:28:23.388Z,0.90
2022-07-27T05:30:49.895Z,0.45
2022-07-27T05:33:16.463Z,0.77
2022-07-27T05:35:43.135Z,0.57
2022-07-27T05:38:09.657Z,0.60
2022-07-27T05:40:36.091Z,0.50
2022-07-27T05:43:02.730Z,0.77
2022-07-27T05:45:29.233Z,0.40
2022-07-27T05:47:56.153Z,0.50
2022-07-27T05:50:22.809Z,0.52
2022-07-27T05:52:49.420Z,0.30
2022-07-27T05:55:16.018Z,0.60
2022-07-27T05:57:42.934Z,0.77
2022-07-27T06:00:10.609Z,0.50
2022-07-27T06:02:37.122Z,0.63
2022-07-27T06:05:03.798Z,0.45
2022-07-27T06:07:49.949Z,0.52
2022-07-27T06:10:17.156Z,0.47
2022-07-27T06:12:45.453Z,0.90
2022-07-27T06:15:13.721Z,0.63
2022-07-27T06:17:40.898Z,0.63
2022-07-27T06:20:08.447Z,0.47
2022-07-27T06:22:55.551Z,0.40
2022-07-27T06:25:23.141Z,0.57
2022-07-27T06:28:01.266Z,0.40
2022-07-27T06:30:27.828Z,0.68
2022-07-27T06:32:54.390Z,0.50
2022-07-27T06:35:23.298Z,0.50
2022-07-27T06:37:53.012Z,0.40
2022-07-27T06:40:20.496Z,0.60
2022-07-27T06:42:47.287Z,0.38
2022-07-27T06:45:14.356Z,0.52
2022-07-27T06:47:49.932Z,0.40
2022-07-27T06:50:18.652Z,0.50
2022-07-27T06:52:45.348Z,0.50
2022-07-27T06:55:12.081Z,0.60
2022-07-27T06:57:38.656Z,0.65
2022-07-27T07:00:07.067Z,0.50
2022-07-27T07:02:33.766Z,0.43
2022-07-27T07:05:00.458Z,0.60
2022-07-27T07:07:27.076Z,0.40
2022-07-27T07:09:53.598Z,0.73
2022-07-27T07:12:20.205Z,0.43
2022-07-27T07:14:46.850Z,0.50
2022-07-27T07:17:13.572Z,0.57
2022-07-27T07:19:40.269Z,0.50
2022-07-27T07:22:06.757Z,0.60
2022-07-27T07:24:33.384Z,0.40
2022-07-27T07:26:59.860Z,0.55
2022-07-27T07:29:26.403Z,0.43
2022-07-27T07:31:52.998Z,0.47
2022-07-27T07:34:19.528Z,0.52
2022-07-27T07:36:47.857Z,0.40
2022-07-27T07:39:14.938Z,0.70
2022-07-27T07:41:41.952Z,1.38
2022-07-27T07:44:10.023Z,0.45
2022-07-27T07:46:37.089Z,0.40
2022-07-27T07:49:05.028Z,0.70
2022-07-27T07:51:32.146Z,0.60
2022-07-27T07:53:59.406Z,0.70
2022-07-27T07:56:26.012Z,0.40
2022-07-27T07:58:52.527Z,0.43
2022-07-27T08:01:19.107Z,0.40
2022-07-27T08:03:50.608Z,0.20
2022-07-27T08:06:17.461Z,0.45
2022-07-27T08:08:43.937Z,0.35
2022-07-27T08:11:10.557Z,0.40
2022-07-27T08:13:37.175Z,0.60
2022-07-27T08:16:03.941Z,0.30
2022-07-27T08:18:30.574Z,0.55
2022-07-27T08:20:57.024Z,0.40
2022-07-27T08:23:23.555Z,0.40
2022-07-27T08:25:50.069Z,0.50
2022-07-27T08:28:16.586Z,0.40
2022-07-27T08:30:45.311Z,0.68
2022-07-27T08:33:12.662Z,0.40
2022-07-27T08:35:39.136Z,0.40
2022-07-27T08:38:07.653Z,0.20
2022-07-27T08:40:44.297Z,0.32
2022-07-27T08:43:21.480Z,0.68
2022-07-27T08:45:56.252Z,0.20
2022-07-27T08:48:25.839Z,0.20
2022-07-27T08:50:52.763Z,0.30
2022-07-27T08:53:19.344Z,0.30
2022-07-27T08:55:49.735Z,0.38
2022-07-27T08:58:17.184Z,0.40
2022-07-27T09:00:48.941Z,0.40
2022-07-27T09:03:20.212Z,0.47
2022-07-27T09:05:52.293Z,0.32
2022-07-27T09:08:25.709Z,0.30
2022-07-27T09:10:55.209Z,0.30
2022-07-27T09:13:25.737Z,0.20
2022-07-27T09:18:43.701Z,0.30
2022-07-27T09:21:20.875Z,0.35
2022-07-27T09:23:49.199Z,0.25
2022-07-27T09:26:35.512Z,0.30
2022-07-27T09:29:14.496Z,0.30
2022-07-27T09:31:42.933Z,0.30
2022-07-27T09:34:10.444Z,0.30
2022-07-27T09:36:51.456Z,0.30
2022-07-27T09:39:20.204Z,0.30
2022-07-27T09:41:48.678Z,0.20
2022-07-27T09:44:33.038Z,0.20
2022-07-27T09:47:19.614Z,0.20
2022-07-27T09:49:46.406Z,0.20
2022-07-27T09:52:26.015Z,0.20
2022-07-27T09:54:53.037Z,0.40
2022-07-27T09:57:20.197Z,0.20
2022-07-27T09:59:47.371Z,0.17
2022-07-27T10:02:14.735Z,0.20
2022-07-27T10:04:41.757Z,0.20
2022-07-27T10:07:13.301Z,0.20
2022-07-27T10:09:40.986Z,0.20
2022-07-27T10:12:08.157Z,0.20
2022-07-27T10:14:35.304Z,0.38
2022-07-27T10:17:02.786Z,0.25
2022-07-27T10:19:39.045Z,0.30
2022-07-27T10:22:05.682Z,0.30
2022-07-27T10:24:34.851Z,0.30
2022-07-27T10:27:21.631Z,0.45
2022-07-27T10:29:50.324Z,0.30
2022-07-27T10:32:31.377Z,0.20
2022-07-27T10:34:58.941Z,0.32
2022-07-27T10:37:32.567Z,0.20
2022-07-27T10:40:26.440Z,0.32
2022-07-27T10:43:20.836Z,0.30
2022-07-27T10:46:00.972Z,0.20
2022-07-27T10:48:47.734Z,0.30
2022-07-27T10:51:16.904Z,0.30
2022-07-27T10:56:46.251Z,0.30
2022-07-27T10:59:12.763Z,0.50
2022-07-27T11:01:56.143Z,0.50
2022-07-27T11:04:24.019Z,0.60
2022-07-27T11:07:23.514Z,0.50
2022-07-27T11:12:29.819Z,0.50
2022-07-27T11:14:57.977Z,0.80
2022-07-27T11:20:15.866Z,0.63
2022-07-27T11:25:29.174Z,0.60
2022-07-27T11:27:55.663Z,0.68
2022-07-27T11:30:27.261Z,0.65
2022-07-27T11:32:54.960Z,0.50
2022-07-27T11:35:21.695Z,0.70
2022-07-27T11:38:05.598Z,0.65
2022-07-27T11:40:56.842Z,0.30
2022-07-27T11:43:38.191Z,0.40
2022-07-27T11:46:18.596Z,0.20
2022-07-27T11:49:11.843Z,0.22
2022-07-27T11:51:50.023Z,0.20
2022-07-27T11:54:34.445Z,0.20
2022-07-27T11:57:03.769Z,0.40
2022-07-27T11:59:49.760Z,0.20
2022-07-27T12:02:22.039Z,0.20
2022-07-27T12:04:52.040Z,0.40
2022-07-27T12:07:22.073Z,0.20
2022-07-27T12:09:51.815Z,0.30
2022-07-27T12:12:24.324Z,0.40
2022-07-27T12:14:56.581Z,0.20
2022-07-27T12:17:26.058Z,0.20
2022-07-27T12:20:18.351Z,0.57
2022-07-27T12:22:51.052Z,0.20
2022-07-27T12:25:17.611Z,0.20
2022-07-27T12:28:00.960Z,0.30
2022-07-27T12:30:32.001Z,0.32
2022-07-27T12:32:59.908Z,0.32
2022-07-27T12:35:38.139Z,0.30
2022-07-27T12:38:08.969Z,0.32
2022-07-27T12:40:44.487Z,0.40
2022-07-27T12:43:16.638Z,0.22
2022-07-27T12:45:43.531Z,0.20
2022-07-27T12:48:16.848Z,0.20
2022-07-27T12:50:45.845Z,0.30
2022-07-27T12:53:13.933Z,0.20
2022-07-27T12:55:42.836Z,0.30
2022-07-27T12:58:10.886Z,0.30
2022-07-27T13:00:38.339Z,0.30
2022-07-27T13:03:05.698Z,0.40
2022-07-27T13:05:33.497Z,0.20
2022-07-27T13:08:01.092Z,0.30
2022-07-27T13:10:27.903Z,0.60
2022-07-27T13:12:54.759Z,0.20
2022-07-27T13:15:21.362Z,0.32
2022-07-27T13:17:49.189Z,0.40
2022-07-27T13:20:17.463Z,0.20
2022-07-27T13:22:45.079Z,0.30
2022-07-27T13:25:15.328Z,0.30
2022-07-27T13:27:48.809Z,0.30
2022-07-27T13:30:17.665Z,0.30
2022-07-27T13:32:46.711Z,0.40
2022-07-27T13:35:14.736Z,0.30
2022-07-27T13:37:41.660Z,0.30
2022-07-27T13:40:09.817Z,0.30
2022-07-27T13:42:36.679Z,0.40
2022-07-27T13:45:09.754Z,0.30
2022-07-27T13:47:37.687Z,0.30
2022-07-27T13:50:05.940Z,0.20
2022-07-27T13:52:32.513Z,0.30
2022-07-27T13:54:59.128Z,0.20
2022-07-27T13:57:25.735Z,0.28
2022-07-27T13:59:52.577Z,0.30
2022-07-27T14:02:22.981Z,0.30
2022-07-27T14:04:52.483Z,0.30
2022-07-27T14:07:19.026Z,0.20
2022-07-27T14:10:08.655Z,0.30
2022-07-27T14:12:35.239Z,0.20
2022-07-27T14:15:01.741Z,0.20
2022-07-27T14:17:28.285Z,0.35
2022-07-27T14:19:54.805Z,0.30
2022-07-27T14:22:21.371Z,0.30
2022-07-27T14:24:47.901Z,0.20
2022-07-27T14:27:14.478Z,0.30
2022-07-27T14:29:41.128Z,0.20
2022-07-27T14:32:07.737Z,0.30
2022-07-27T14:34:34.251Z,0.50
2022-07-27T14:37:00.889Z,0.20
2022-07-27T14:39:27.427Z,0.30
2022-07-27T14:41:54.094Z,0.22
2022-07-27T14:44:20.575Z,0.20
2022-07-27T14:46:47.186Z,0.30
2022-07-27T14:49:17.076Z,0.30
2022-07-27T14:51:43.802Z,0.20
2022-07-27T14:54:10.567Z,0.30
2022-07-27T14:56:37.303Z,0.30
2022-07-27T14:59:04.554Z,0.20
2022-07-27T15:01:31.880Z,0.30
2022-07-27T15:03:58.475Z,0.40
2022-07-27T15:06:25.153Z,0.20
2022-07-27T15:08:51.663Z,0.30
2022-07-27T15:11:18.155Z,0.28
2022-07-27T15:13:44.645Z,0.40
2022-07-27T15:16:12.020Z,0.20
2022-07-27T15:18:39.163Z,0.50
2022-07-27T15:21:12.779Z,0.30
2022-07-27T15:23:41.308Z,0.40
2022-07-27T15:26:07.867Z,0.30
2022-07-27T15:28:35.187Z,0.52
2022-07-27T15:31:01.863Z,0.38
2022-07-27T15:33:28.406Z,0.65
2022-07-27T15:35:55.070Z,0.20
2022-07-27T15:38:21.628Z,0.40
2022-07-27T15:40:48.334Z,0.38
2022-07-27T15:43:17.280Z,0.32
2022-07-27T15:45:47.696Z,0.30
2022-07-27T15:48:15.525Z,0.70
2022-07-27T15:50:44.839Z,0.20
2022-07-27T15:53:11.807Z,0.20
2022-07-27T15:55:38.334Z,0.40
2022-07-27T15:58:06.293Z,0.22
2022-07-27T16:00:39.082Z,0.28
2022-07-27T16:03:06.496Z,0.30
2022-07-27T16:05:33.208Z,0.68
2022-07-27T16:07:59.745Z,0.38
2022-07-27T16:10:27.371Z,0.32
2022-07-27T16:12:53.926Z,0.70
2022-07-27T16:15:40.471Z,0.40
2022-07-27T16:18:08.505Z,0.40
2022-07-27T16:20:35.048Z,0.32
2022-07-27T16:23:01.662Z,0.30
2022-07-27T16:25:53.300Z,0.30
2022-07-27T16:28:15.728Z,0.25
2022-07-27T16:30:42.363Z,0.22
2022-07-27T16:33:09.373Z,0.43
2022-07-27T16:35:38.257Z,0.30
2022-07-27T16:38:04.958Z,0.30
2022-07-27T16:40:31.436Z,0.43
2022-07-27T16:42:57.926Z,0.20
2022-07-27T16:45:24.519Z,0.20
2022-07-27T16:47:51.043Z,0.20
2022-07-27T16:50:18.433Z,0.30
2022-07-27T16:52:45.309Z,0.22
2022-07-27T16:55:11.848Z,0.47
2022-07-27T16:57:38.820Z,0.40
2022-07-27T17:00:08.063Z,0.25
2022-07-27T17:02:34.898Z,0.40
2022-07-27T17:05:01.519Z,0.30
2022-07-27T17:07:28.239Z,0.30
2022-07-27T17:09:54.777Z,0.30
2022-07-27T17:12:21.423Z,0.55
2022-07-27T17:14:50.159Z,0.20
2022-07-27T17:17:16.695Z,0.30
2022-07-27T17:19:43.414Z,0.30
2022-07-27T17:22:09.984Z,0.20
2022-07-27T17:24:38.303Z,0.55
2022-07-27T17:27:04.997Z,0.30
2022-07-27T17:29:31.535Z,0.20
2022-07-27T17:31:58.034Z,0.30
2022-07-27T17:34:24.689Z,0.32
2022-07-27T17:36:51.410Z,0.30
2022-07-27T17:39:18.932Z,0.40
2022-07-27T17:41:45.647Z,0.20
2022-07-27T17:44:12.200Z,0.60
2022-07-27T17:46:39.120Z,0.32
2022-07-27T17:49:05.934Z,0.52
2022-07-27T17:51:33.217Z,0.50
2022-07-27T17:54:01.356Z,0.90
2022-07-27T17:56:27.895Z,0.50
2022-07-27T17:58:54.340Z,0.30
2022-07-27T18:01:47.677Z,0.40
2022-07-27T18:04:07.721Z,0.45
2022-07-27T18:06:34.495Z,0.40
2022-07-27T18:09:01.174Z,0.40
2022-07-27T18:11:27.705Z,0.40
2022-07-27T18:13:55.028Z,0.40
2022-07-27T18:16:21.687Z,0.30
2022-07-27T18:18:48.256Z,0.20
2022-07-27T18:21:15.814Z,0.30
2022-07-27T18:23:42.783Z,0.40
2022-07-27T18:26:12.324Z,0.38
2022-07-27T18:28:39.950Z,0.40
2022-07-27T18:31:07.160Z,0.30
2022-07-27T18:33:36.678Z,0.30
2022-07-27T18:36:04.981Z,0.40
2022-07-27T18:38:31.507Z,0.60
2022-07-27T18:40:59.356Z,0.50
2022-07-27T18:43:25.845Z,0.43
2022-07-27T18:45:52.328Z,0.45
2022-07-27T18:48:18.938Z,0.50
2022-07-27T18:50:45.454Z,0.70
2022-07-27T18:53:12.126Z,1.10
2022-07-27T18:55:38.815Z,1.70
2022-07-27T18:58:05.845Z,1.23
2022-07-27T19:00:33.599Z,1.70
2022-07-27T19:03:00.450Z,1.50
2022-07-27T19:05:32.533Z,1.80
2022-07-27T19:08:12.950Z,1.80
2022-07-27T19:10:40.592Z,1.90
2022-07-27T19:13:07.411Z,2.05
2022-07-27T19:15:33.925Z,2.20
2022-07-27T19:18:01.657Z,1.95
2022-07-27T19:20:28.546Z,2.15
2022-07-27T19:22:55.247Z,2.30
2022-07-27T19:25:24.142Z,2.20
2022-07-27T19:27:50.649Z,2.38
2022-07-27T19:30:17.610Z,2.45
2022-07-27T19:32:44.821Z,2.47
2022-07-27T19:35:12.189Z,2.20
2022-07-27T19:37:39.505Z,2.50
2022-07-27T19:40:33.301Z,2.58
2022-07-27T19:42:54.809Z,2.55
2022-07-27T19:45:21.702Z,2.22
2022-07-27T19:47:48.141Z,2.78
2022-07-27T19:50:14.757Z,2.60
2022-07-27T19:52:41.261Z,2.60
2022-07-27T19:55:08.097Z,2.58
2022-07-27T19:57:34.693Z,2.60
2022-07-27T20:00:02.764Z,2.50
2022-07-27T20:02:29.434Z,2.90
2022-07-27T20:04:55.925Z,2.67
2022-07-27T20:07:22.503Z,3.00
2022-07-27T20:09:49.122Z,2.60
2022-07-27T20:12:15.651Z,3.15
2022-07-27T20:14:42.288Z,2.58
2022-07-27T20:17:09.061Z,3.00
2022-07-27T20:19:35.716Z,2.30
2022-07-27T20:22:02.564Z,2.50
2022-07-27T20:24:29.481Z,2.10
2022-07-27T20:26:56.784Z,2.22
2022-07-27T20:29:23.744Z,1.90
2022-07-27T20:31:50.657Z,1.90
2022-07-27T20:34:22.718Z,1.98
2022-07-27T20:36:49.533Z,1.65
2022-07-27T20:39:17.730Z,2.00
2022-07-27T20:41:45.013Z,1.60
2022-07-27T20:44:11.597Z,2.00
2022-07-27T20:46:38.223Z,1.58
2022-07-27T20:49:05.094Z,1.65
2022-07-27T20:51:31.649Z,1.90
2022-07-27T20:53:58.440Z,1.88
2022-07-27T20:56:24.873Z,1.90
2022-07-27T20:58:51.843Z,2.00
2022-07-27T21:01:18.360Z,2.30
2022-07-27T21:03:44.892Z,2.10
2022-07-27T21:06:11.555Z,2.10
2022-07-27T21:08:41.580Z,2.00
2022-07-27T21:11:11.047Z,2.20
2022-07-27T21:13:37.612Z,2.20
2022-07-27T21:16:04.435Z,2.15
2022-07-27T21:18:31.009Z,2.25
2022-07-27T21:20:57.592Z,1.88
2022-07-27T21:23:42.774Z,2.35
2022-07-27T21:26:09.897Z,1.77
2022-07-27T21:28:37.385Z,2.08
2022-07-27T21:31:07.774Z,1.90
2022-07-27T21:33:39.427Z,2.17
2022-07-27T21:36:06.523Z,2.30
2022-07-27T21:38:33.003Z,2.08
2022-07-27T21:40:59.536Z,2.10
2022-07-27T21:43:26.043Z,1.92
2022-07-27T21:45:52.600Z,2.10
2022-07-27T21:48:19.159Z,2.30
2022-07-27T21:50:45.633Z,2.20
2022-07-27T21:53:12.150Z,2.05
2022-07-27T21:55:40.746Z,2.47
2022-07-27T21:58:08.326Z,2.33
2022-07-27T22:00:34.836Z,2.22
2022-07-27T22:03:01.473Z,2.20
2022-07-27T22:05:27.882Z,2.25
2022-07-27T22:07:54.393Z,2.22
2022-07-27T22:10:20.934Z,1.85
2022-07-27T22:12:47.465Z,2.20
2022-07-27T22:15:13.968Z,2.50
2022-07-27T22:17:49.846Z,2.40
2022-07-27T22:20:18.703Z,2.17
2022-07-27T22:22:45.537Z,2.15
2022-07-27T22:25:12.192Z,2.60
2022-07-27T22:27:39.064Z,2.42
2022-07-27T22:30:06.692Z,2.47
2022-07-27T22:32:33.252Z,2.38
2022-07-27T22:35:00.368Z,2.70
2022-07-27T22:37:26.939Z,2.35
2022-07-27T22:39:53.434Z,2.40
2022-07-27T22:42:19.926Z,2.55
2022-07-27T22:44:46.419Z,2.30
2022-07-27T22:47:13.017Z,2.60
2022-07-27T22:49:39.490Z,2.70
2022-07-27T22:52:06.510Z,2.90
2022-07-27T22:54:34.556Z,2.75
2022-07-27T22:57:01.035Z,2.65
2022-07-27T22:59:27.654Z,2.55
2022-07-27T23:01:54.313Z,2.40
2022-07-27T23:04:20.984Z,2.40
2022-07-27T23:06:47.613Z,2.55
2022-07-27T23:09:14.592Z,2.45
2022-07-27T23:11:41.471Z,2.33
2022-07-27T23:14:08.035Z,2.42
2022-07-27T23:16:34.679Z,2.60
2022-07-27T23:19:01.186Z,2.30
2022-07-27T23:21:27.796Z,2.00
2022-07-27T23:23:54.443Z,2.35
2022-07-27T23:26:23.161Z,2.72
2022-07-27T23:28:53.369Z,2.42
2022-07-27T23:31:20.022Z,2.85
2022-07-27T23:33:47.052Z,2.58
2022-07-27T23:36:14.073Z,2.80
2022-07-27T23:38:40.562Z,2.90
2022-07-27T23:41:07.106Z,2.53
2022-07-27T23:43:33.923Z,2.63
2022-07-27T23:46:00.592Z,2.60
2022-07-27T23:48:27.153Z,2.50
2022-07-27T23:50:55.616Z,2.42
2022-07-27T23:53:22.271Z,2.30
2022-07-27T23:55:48.754Z,2.47
2022-07-27T23:58:15.203Z,2.63
